Portada
METAR-TAF:

METAR-TAF

Aeropuertos :

Agen, Francia

latitud: 44-11N, longitud: 000-36E, altitud: 61 m

Observación

El informe se hizo hace 44 minutos, a las 07:30 UTC
Viento 4 kt del este
Temperatura 9°C
Humedad 93%
Presión 1025 hPa
Visibilidad 10 km o más
sin nubes por debajo de 1500 m y sin presencia de cumulonimbus.

METAR: LFBA 280730Z AUTO 10004KT CAVOK 09/08 Q1025 NOSIG

Hora: 10:14 (08:14 UTC)

Pronóstico

El informe se hizo hace 3 horas y 14 minutos, a las 05:00 UTC
Pronóstico válido del 28 a las 06 UTC al 28 a las 15 UTC
Viento 2 kt con dirección variable
Visibilidad 10 km o más
sin nubes por debajo de 1500 m y sin presencia de cumulonimbus.
Probabilidad 30% :
Temporalmente
del 28 a las 06 UTC al 28 a las 08 UTC
Visibilidad: 1000 m
neblina
Evolucionando progresivamente
del 28 a las 09 UTC al 28 a las 11 UTC
Viento 6 kt del oeste-suroeste

TAF: LFBA 280500Z 2806/2815 VRB02KT CAVOK PROB30 TEMPO 2806/2808 1000 BR BECMG 2809/2811 24006KT

Observaciones y pronósticos meteorológicos de más de 4000 aeropuertos (mensajes METAR y TAF).

Los puntos amarillos y rojos representan las estaciones disponibles.

Ponga el ratón en el punto deseado para ver el nombre de la estación.

Haga clic para ver las observaciones y los pronósticos meteorológicos.

Para cambiar el mapa : haga clic en los botones verdes con una cruz de color negro para hacer un zoom, en el botón verde con un guión para alejar o en las flechas verdes para mapas adyacentes.


METAR-TAF: